Time;durP1;ratioP1;P1;durP2;ratioP2;P2;SDS_P1;SDS_P2;PMS_P1;PMS_P2;Temp;Humidity;BMP_temperature;BMP_pressure;BME280_temperature;BME280_humidity;BME280_pressure;Samples;Min_cycle;Max_cycle;Signal;HPM_P1;HPM_P2
2022/09/07 00:02:12;;;;;;;5.30;0.80;;;;;;;13.22;63.35;100549.13;105757;1273;25309;-63
2022/09/07 00:04:44;;;;;;;5.40;1.00;;;;;;;13.18;63.32;100552.14;106100;1273;25228;-64
2022/09/07 00:07:15;;;;;;;5.90;0.90;;;;;;;13.15;63.53;100552.00;105677;1273;24343;-63
2022/09/07 00:09:48;;;;;;;6.90;1.60;;;;;;;13.14;63.60;100548.26;105670;1273;22544;-64
2022/09/07 00:12:20;;;;;;;7.20;1.00;;;;;;;13.13;63.86;100549.73;105631;1273;22556;-64
2022/09/07 00:14:52;;;;;;;5.20;1.00;;;;;;;13.13;63.74;100546.77;105672;1272;25235;-64
2022/09/07 00:17:24;;;;;;;5.50;0.80;;;;;;;13.12;63.86;100548.80;105772;1273;25475;-63
2022/09/07 00:19:56;;;;;;;5.10;0.90;;;;;;;13.13;63.66;100552.94;105712;1273;25522;-63
2022/09/07 00:22:28;;;;;;;3.90;1.00;;;;;;;13.14;63.77;100550.66;105751;1273;24318;-64
2022/09/07 00:25:00;;;;;;;6.50;0.90;;;;;;;13.15;63.64;100547.00;105673;1273;24245;-63
2022/09/07 00:27:33;;;;;;;8.60;1.20;;;;;;;13.15;63.74;100547.52;105676;1273;24244;-63
2022/09/07 00:30:07;;;;;;;9.50;1.00;;;;;;;13.16;63.80;100549.66;105650;1273;22616;-63
2022/09/07 00:32:39;;;;;;;5.20;0.80;;;;;;;13.17;63.74;100549.02;105689;1273;22691;-64
2022/09/07 00:35:12;;;;;;;6.90;1.00;;;;;;;13.17;63.71;100545.71;105681;1273;25434;-64
2022/09/07 00:37:44;;;;;;;6.20;1.00;;;;;;;13.17;63.94;100538.62;105673;1273;22580;-63
2022/09/07 00:40:16;;;;;;;6.40;1.10;;;;;;;13.17;63.97;100538.41;105677;1273;25532;-63
2022/09/07 00:42:49;;;;;;;4.30;1.00;;;;;;;13.16;63.85;100539.05;105577;1273;22569;-63
2022/09/07 00:45:21;;;;;;;6.90;1.10;;;;;;;13.15;64.11;100536.70;105701;1273;25866;-63
2022/09/07 00:47:58;;;;;;;4.70;1.00;;;;;;;13.16;64.04;100534.77;105670;1272;24455;-64
2022/09/07 00:50:34;;;;;;;5.60;0.90;;;;;;;13.15;64.04;100532.69;105606;1273;22673;-65
2022/09/07 00:53:10;;;;;;;5.10;1.10;;;;;;;13.15;64.21;100529.27;105630;1273;22532;-63
2022/09/07 00:55:44;;;;;;;7.90;1.00;;;;;;;13.15;63.91;100533.55;105609;1273;22544;-63
2022/09/07 00:58:18;;;;;;;6.00;1.10;;;;;;;13.14;64.20;100535.98;105950;1273;22610;-64
2022/09/07 01:00:50;;;;;;;6.10;1.10;;;;;;;13.14;64.28;100533.69;105624;1273;22569;-64
2022/09/07 01:03:29;;;;;;;6.50;1.10;;;;;;;13.14;64.37;100532.56;105800;1272;22531;-64
2022/09/07 01:06:07;;;;;;;8.40;1.40;;;;;;;13.14;64.33;100532.46;105921;1273;22619;-63
2022/09/07 01:08:41;;;;;;;7.20;0.90;;;;;;;13.15;64.59;100534.72;105760;1272;25304;-63
2022/09/07 01:11:13;;;;;;;4.60;0.90;;;;;;;13.15;64.53;100535.02;105762;1273;24454;-64
2022/09/07 01:13:47;;;;;;;7.70;1.10;;;;;;;13.15;64.64;100535.69;105790;1273;22648;-63
2022/09/07 01:16:32;;;;;;;4.90;1.10;;;;;;;13.15;64.45;100530.89;105674;1273;22553;-63
2022/09/07 01:19:33;;;;;;;5.80;1.00;;;;;;;13.14;64.44;100518.50;105783;1273;22539;-63
2022/09/07 01:22:20;;;;;;;7.00;1.40;;;;;;;13.11;64.52;100526.92;105722;1273;22620;-63
2022/09/07 01:25:03;;;;;;;8.50;1.20;;;;;;;13.09;64.74;100524.66;106004;1273;24417;-64
2022/09/07 01:27:59;;;;;;;10.20;1.40;;;;;;;13.08;64.84;100526.01;105814;1273;23218;-64
2022/09/07 01:30:36;;;;;;;4.40;1.00;;;;;;;13.05;64.88;100515.67;105639;1273;22611;-63
2022/09/07 01:33:25;;;;;;;7.00;1.20;;;;;;;13.02;64.87;100517.59;105764;1273;25478;-63
2022/09/07 01:36:10;;;;;;;6.50;1.10;;;;;;;13.00;64.70;100516.56;105801;1273;25638;-63
2022/09/07 01:38:46;;;;;;;6.00;0.90;;;;;;;12.97;64.84;100517.89;105935;1272;25488;-64
2022/09/07 01:41:22;;;;;;;5.60;1.20;;;;;;;12.96;64.77;100518.68;105722;1273;22589;-63
2022/09/07 01:44:01;;;;;;;4.80;1.10;;;;;;;12.94;64.60;100515.90;101474;1273;5725977;-64
2022/09/07 01:46:37;;;;;;;6.30;1.10;;;;;;;12.92;64.74;100513.80;105783;1273;25816;-64
2022/09/07 01:49:14;;;;;;;8.00;1.30;;;;;;;12.89;64.60;100511.52;105718;1273;23964;-63
2022/09/07 01:51:51;;;;;;;6.40;0.90;;;;;;;12.87;64.53;100509.54;105758;1273;24388;-63
2022/09/07 01:54:27;;;;;;;9.00;1.20;;;;;;;12.85;64.54;100507.69;105656;1273;22550;-63
2022/09/07 01:57:02;;;;;;;5.80;1.00;;;;;;;12.82;64.55;100506.83;105928;1273;24226;-63
2022/09/07 01:59:38;;;;;;;4.50;1.00;;;;;;;12.79;64.60;100511.83;105939;1273;23655;-63
2022/09/07 02:02:15;;;;;;;8.90;1.20;;;;;;;12.77;64.68;100512.72;105671;1273;22520;-64
2022/09/07 02:04:54;;;;;;;4.40;0.90;;;;;;;12.74;64.64;100507.67;105651;1273;25313;-63
2022/09/07 02:07:29;;;;;;;7.40;1.50;;;;;;;12.71;64.85;100508.10;105874;1273;25251;-63
2022/09/07 02:10:11;;;;;;;7.50;1.10;;;;;;;12.67;64.85;100507.98;105650;1273;22550;-64
2022/09/07 02:12:49;;;;;;;8.00;1.20;;;;;;;12.65;65.05;100508.05;105661;1273;22562;-63
2022/09/07 02:15:27;;;;;;;4.50;1.00;;;;;;;12.61;65.12;100506.68;105685;1273;22531;-63
2022/09/07 02:18:03;;;;;;;6.10;1.00;;;;;;;12.58;65.28;100505.77;105948;1273;22551;-63
2022/09/07 02:20:39;;;;;;;6.90;0.90;;;;;;;12.56;65.46;100504.98;105755;1270;22560;-64
2022/09/07 02:23:16;;;;;;;9.30;1.20;;;;;;;12.54;65.61;100502.44;105802;1273;23034;-63
2022/09/07 02:25:54;;;;;;;8.30;1.10;;;;;;;12.54;65.66;100500.00;105715;1273;22621;-63
2022/09/07 02:28:30;;;;;;;8.10;1.00;;;;;;;12.52;65.53;100498.14;105850;1273;25520;-63
2022/09/07 02:31:02;;;;;;;5.80;1.20;;;;;;;12.52;65.81;100496.25;105658;1273;22704;-62
2022/09/07 02:33:37;;;;;;;7.30;1.00;;;;;;;12.52;65.36;100497.69;105726;1273;22616;-63
2022/09/07 02:36:12;;;;;;;8.00;1.30;;;;;;;12.52;65.32;100503.08;105621;1273;22669;-63
2022/09/07 02:38:45;;;;;;;6.60;1.00;;;;;;;12.52;65.63;100503.28;105633;1272;24706;-63
2022/09/07 02:41:35;;;;;;;6.00;1.00;;;;;;;12.52;65.63;100502.02;105717;1273;25288;-63
2022/09/07 02:44:10;;;;;;;6.70;1.10;;;;;;;12.51;65.68;100501.23;105725;1273;22585;-63
2022/09/07 02:47:04;;;;;;;5.60;1.00;;;;;;;12.52;65.87;100498.79;105836;1273;22541;-64
2022/09/07 02:49:56;;;;;;;4.70;0.90;;;;;;;12.53;65.93;100500.34;105683;1273;25280;-62
2022/09/07 02:52:37;;;;;;;7.10;1.00;;;;;;;12.53;65.64;100491.33;105816;1273;25408;-63
2022/09/07 02:55:19;;;;;;;5.90;1.10;;;;;;;12.52;65.53;100489.42;105966;1273;22557;-63
2022/09/07 02:58:01;;;;;;;7.20;1.10;;;;;;;12.52;65.65;100491.31;105651;1273;22708;-63
2022/09/07 03:00:38;;;;;;;4.90;0.90;;;;;;;12.52;65.47;100495.43;105914;1273;22681;-63
2022/09/07 03:03:21;;;;;;;5.40;1.00;;;;;;;12.54;65.48;100494.95;105812;1273;23631;-62
2022/09/07 03:05:57;;;;;;;5.40;1.10;;;;;;;12.53;65.38;100495.86;105757;1273;22860;-62
2022/09/07 03:08:34;;;;;;;4.80;1.10;;;;;;;12.53;65.47;100488.23;105704;1273;25320;-62
2022/09/07 03:11:08;;;;;;;5.60;0.70;;;;;;;12.54;65.43;100481.27;105792;1273;22531;-64
2022/09/07 03:13:39;;;;;;;7.20;1.00;;;;;;;12.53;65.27;100481.45;105754;1273;22701;-64
2022/09/07 03:16:16;;;;;;;6.90;1.10;;;;;;;12.52;65.32;100482.86;105739;1273;24212;-63
2022/09/07 03:18:47;;;;;;;7.20;0.90;;;;;;;12.52;65.25;100484.39;105735;1272;22554;-63
2022/09/07 03:21:18;;;;;;;4.80;0.90;;;;;;;12.51;65.16;100484.84;105784;1273;25575;-63
2022/09/07 03:23:50;;;;;;;5.80;1.20;;;;;;;12.50;65.06;100484.18;105835;1273;22537;-63
2022/09/07 03:26:25;;;;;;;9.50;0.90;;;;;;;12.47;65.22;100491.69;105683;1273;22617;-63
2022/09/07 03:28:56;;;;;;;7.50;1.20;;;;;;;12.45;65.22;100499.39;105781;1273;22567;-62
2022/09/07 03:31:28;;;;;;;7.50;1.70;;;;;;;12.40;65.51;100493.15;105772;1273;26003;-64
2022/09/07 03:33:59;;;;;;;6.30;1.20;;;;;;;12.35;65.38;100484.95;105777;1272;25372;-62
2022/09/07 03:36:31;;;;;;;7.50;1.20;;;;;;;12.33;65.56;100484.91;105805;1273;22621;-64
2022/09/07 03:39:03;;;;;;;10.40;1.10;;;;;;;12.32;65.39;100482.41;105749;1273;22633;-65
2022/09/07 03:41:35;;;;;;;4.90;1.10;;;;;;;12.30;65.29;100477.89;105800;1273;25531;-63
2022/09/07 03:44:08;;;;;;;8.90;1.40;;;;;;;12.28;65.11;100477.23;105661;1273;22605;-64
2022/09/07 03:46:39;;;;;;;5.10;0.70;;;;;;;12.26;65.20;100484.29;105701;1273;22541;-63
2022/09/07 03:49:11;;;;;;;4.90;1.00;;;;;;;12.23;65.15;100483.12;105685;1273;23233;-64
2022/09/07 03:51:42;;;;;;;8.20;2.20;;;;;;;12.18;65.29;100485.08;105896;1273;24317;-63
2022/09/07 03:54:14;;;;;;;4.90;0.90;;;;;;;12.13;65.42;100486.33;105784;1273;22567;-63
2022/09/07 03:56:45;;;;;;;9.00;1.00;;;;;;;12.11;65.55;100484.14;105761;1273;22547;-63
2022/09/07 03:59:16;;;;;;;6.90;0.90;;;;;;;12.07;65.36;100482.35;105746;1273;23249;-63
2022/09/07 04:01:48;;;;;;;6.70;1.40;;;;;;;12.03;65.39;100479.13;105743;1273;24071;-63
2022/09/07 04:04:20;;;;;;;5.20;1.00;;;;;;;12.02;65.58;100474.08;105885;1271;22643;-63
2022/09/07 04:06:51;;;;;;;6.50;1.00;;;;;;;12.00;65.42;100471.14;106073;1273;24413;-62
2022/09/07 04:09:23;;;;;;;5.90;1.10;;;;;;;11.98;65.58;100472.29;105800;1272;25523;-63
2022/09/07 04:11:54;;;;;;;7.00;0.80;;;;;;;11.96;65.55;100472.04;105786;1273;22545;-62
2022/09/07 04:14:26;;;;;;;9.60;1.70;;;;;;;11.95;65.42;100471.14;105645;1273;22614;-63
2022/09/07 04:16:58;;;;;;;6.60;1.20;;;;;;;11.93;65.39;100470.81;105754;1273;22532;-63
2022/09/07 04:19:31;;;;;;;6.40;1.10;;;;;;;11.92;65.23;100473.14;105684;1273;22534;-63
2022/09/07 04:22:03;;;;;;;5.00;0.90;;;;;;;11.92;65.47;100467.54;105844;1273;24236;-62
2022/09/07 04:24:35;;;;;;;9.80;1.10;;;;;;;11.91;65.26;100461.67;105707;1273;25498;-63
2022/09/07 04:27:06;;;;;;;5.80;0.90;;;;;;;11.90;65.14;100458.05;105864;1273;22539;-61
2022/09/07 04:29:38;;;;;;;8.40;1.10;;;;;;;11.88;65.01;100462.14;106109;1273;22531;-63
2022/09/07 04:32:09;;;;;;;7.70;0.90;;;;;;;11.87;65.00;100463.95;105852;1273;22531;-63
2022/09/07 04:34:41;;;;;;;11.40;1.20;;;;;;;11.86;65.06;100462.25;105675;1273;22598;-64
2022/09/07 04:37:12;;;;;;;7.40;1.00;;;;;;;11.86;64.95;100457.47;105808;1273;24449;-63
2022/09/07 04:39:59;;;;;;;7.00;1.10;;;;;;;11.85;64.98;100457.86;105724;1273;24222;-63
2022/09/07 04:42:41;;;;;;;7.50;1.30;;;;;;;11.81;65.14;100459.16;105944;1273;25472;-62
2022/09/07 04:45:17;;;;;;;7.50;1.20;;;;;;;11.79;65.01;100455.83;105336;1272;22702;-62
2022/09/07 04:47:51;;;;;;;6.90;1.00;;;;;;;11.79;65.11;100451.77;105905;1271;25496;-62
2022/09/07 04:50:23;;;;;;;10.60;1.10;;;;;;;11.79;64.98;100457.71;105680;1273;22571;-62
2022/09/07 04:52:55;;;;;;;7.80;1.20;;;;;;;11.79;65.13;100455.52;105682;1273;24441;-62
2022/09/07 04:55:26;;;;;;;9.10;1.10;;;;;;;11.80;65.12;100456.61;105740;1273;22570;-62
2022/09/07 04:57:58;;;;;;;5.80;1.20;;;;;;;11.81;65.25;100454.89;105669;1273;24462;-62
2022/09/07 05:00:30;;;;;;;8.70;0.90;;;;;;;11.83;65.45;100451.16;105688;1273;25477;-63
2022/09/07 05:03:02;;;;;;;6.70;1.00;;;;;;;11.85;65.12;100453.30;105679;1273;22784;-63
2022/09/07 05:05:35;;;;;;;6.70;1.10;;;;;;;11.86;65.49;100453.77;105778;1273;25318;-62
2022/09/07 05:08:07;;;;;;;6.20;0.80;;;;;;;11.87;65.28;100454.13;105693;1272;22535;-63
2022/09/07 05:10:38;;;;;;;9.90;1.10;;;;;;;11.88;65.13;100450.64;105631;1273;22548;-64
2022/09/07 05:13:10;;;;;;;7.30;1.60;;;;;;;11.89;65.05;100454.02;105814;1273;22796;-62
2022/09/07 05:15:41;;;;;;;5.20;1.00;;;;;;;11.92;65.03;100454.82;105701;1273;22590;-62
2022/09/07 05:18:13;;;;;;;5.30;1.00;;;;;;;11.94;64.83;100454.31;105793;1273;22716;-61
2022/09/07 05:20:44;;;;;;;12.90;1.00;;;;;;;11.98;65.04;100460.02;105757;1273;24445;-63
2022/09/07 05:23:16;;;;;;;7.30;0.90;;;;;;;12.02;64.88;100462.17;106319;1273;24318;-62
2022/09/07 05:25:48;;;;;;;7.60;0.90;;;;;;;12.07;64.79;100464.75;105780;1274;22547;-62
2022/09/07 05:28:20;;;;;;;10.00;1.00;;;;;;;12.12;64.77;100463.85;106102;1273;25517;-63
2022/09/07 05:30:53;;;;;;;7.00;1.10;;;;;;;12.17;64.78;100467.31;105622;1274;22544;-64
2022/09/07 05:33:24;;;;;;;5.50;0.70;;;;;;;12.22;64.62;100460.05;105576;1273;25373;-63
2022/09/07 05:36:00;;;;;;;6.10;0.90;;;;;;;12.25;64.55;100459.70;105839;1273;24271;-62
2022/09/07 05:38:31;;;;;;;12.80;1.10;;;;;;;12.28;64.37;100456.98;105864;1273;22542;-64
2022/09/07 05:41:09;;;;;;;5.20;1.10;;;;;;;12.30;64.22;100452.14;105840;1273;22564;-62
2022/09/07 05:43:41;;;;;;;6.60;0.90;;;;;;;12.33;64.10;100452.38;105694;1273;24236;-63
2022/09/07 05:46:13;;;;;;;9.60;0.90;;;;;;;12.35;64.10;100452.15;105780;1273;24367;-63
2022/09/07 05:48:45;;;;;;;9.10;1.30;;;;;;;12.38;63.92;100454.09;105812;1273;22716;-63
2022/09/07 05:51:17;;;;;;;10.40;1.50;;;;;;;12.41;63.74;100456.92;105775;1273;22706;-62
2022/09/07 05:53:49;;;;;;;5.80;0.80;;;;;;;12.44;64.08;100454.69;105741;1273;22621;-62
2022/09/07 05:56:20;;;;;;;11.00;1.00;;;;;;;12.48;64.12;100456.27;105794;1273;22547;-62
2022/09/07 05:58:52;;;;;;;5.20;1.00;;;;;;;12.53;64.20;100464.08;105792;1273;24324;-63
2022/09/07 06:01:24;;;;;;;8.70;1.10;;;;;;;12.58;64.00;100466.52;105762;1273;22710;-62
2022/09/07 06:03:55;;;;;;;5.40;0.90;;;;;;;12.63;63.86;100471.60;105853;1273;22920;-63
2022/09/07 06:06:26;;;;;;;8.20;1.20;;;;;;;12.66;63.55;100477.56;105827;1273;25611;-64
2022/09/07 06:08:58;;;;;;;11.70;2.30;;;;;;;12.70;63.63;100479.66;105731;1273;22626;-62
2022/09/07 06:11:30;;;;;;;7.30;0.90;;;;;;;12.76;63.86;100478.46;105917;1274;24222;-63
2022/09/07 06:14:02;;;;;;;8.70;1.00;;;;;;;12.81;63.73;100472.88;105977;1273;22749;-63
2022/09/07 06:16:35;;;;;;;14.00;1.20;;;;;;;12.85;63.60;100463.98;105858;1273;25389;-63
2022/09/07 06:19:09;;;;;;;7.60;1.20;;;;;;;12.90;63.32;100461.69;105661;1273;26017;-63
2022/09/07 06:21:42;;;;;;;6.60;1.00;;;;;;;12.95;63.40;100461.15;105648;1273;22707;-62
2022/09/07 06:24:13;;;;;;;10.40;1.30;;;;;;;12.99;63.20;100463.20;105749;1274;24238;-62
2022/09/07 06:26:45;;;;;;;7.70;1.30;;;;;;;13.05;63.25;100471.39;105702;1273;22553;-62
2022/09/07 06:29:17;;;;;;;5.80;1.10;;;;;;;13.10;63.32;100469.92;105713;1273;22629;-63
2022/09/07 06:31:49;;;;;;;5.30;1.10;;;;;;;13.16;63.14;100475.23;105681;1274;22791;-63
2022/09/07 06:34:21;;;;;;;12.40;1.60;;;;;;;13.20;63.28;100480.18;105709;1274;24245;-63
2022/09/07 06:36:53;;;;;;;10.80;1.80;;;;;;;13.25;63.15;100482.34;105694;1275;22539;-63
2022/09/07 06:39:25;;;;;;;9.00;1.40;;;;;;;13.31;62.88;100477.27;105599;1274;22776;-63
2022/09/07 06:41:56;;;;;;;6.90;1.00;;;;;;;13.38;62.93;100477.80;105777;1274;23461;-61
2022/09/07 06:44:28;;;;;;;9.70;1.20;;;;;;;13.44;62.68;100471.85;105795;1274;22729;-62
2022/09/07 06:47:00;;;;;;;10.10;1.40;;;;;;;13.48;62.80;100474.05;105723;1274;24346;-63
2022/09/07 06:49:32;;;;;;;8.70;1.00;;;;;;;13.54;62.52;100471.96;105690;1274;24234;-61
2022/09/07 06:52:04;;;;;;;13.00;1.30;;;;;;;13.59;62.56;100473.24;105713;1273;25411;-62
2022/09/07 06:54:36;;;;;;;6.50;1.20;;;;;;;13.64;62.45;100474.42;105830;1274;22545;-62
2022/09/07 06:57:08;;;;;;;13.90;1.40;;;;;;;13.72;62.57;100477.81;105777;1273;22560;-63
2022/09/07 06:59:39;;;;;;;7.50;1.40;;;;;;;13.79;62.27;100476.41;105744;1274;25263;-63
2022/09/07 07:02:13;;;;;;;8.90;2.50;;;;;;;13.84;62.08;100467.31;105685;1274;25275;-67
2022/09/07 07:04:45;;;;;;;7.60;1.20;;;;;;;13.88;61.89;100466.13;105824;1273;22591;-63
2022/09/07 07:07:17;;;;;;;11.90;1.30;;;;;;;13.93;61.99;100463.73;105840;1274;24313;-63
2022/09/07 07:09:51;;;;;;;7.50;1.30;;;;;;;14.00;61.86;100464.66;105797;1274;22861;-63
2022/09/07 07:12:23;;;;;;;6.50;1.10;;;;;;;14.08;61.78;100463.40;105817;1274;24396;-62
2022/09/07 07:14:55;;;;;;;8.30;1.20;;;;;;;14.16;61.84;100466.37;105866;1274;23200;-64
2022/09/07 07:17:26;;;;;;;6.50;1.20;;;;;;;14.22;61.53;100463.56;105705;1274;25604;-63
2022/09/07 07:19:58;;;;;;;11.50;1.20;;;;;;;14.28;61.49;100463.73;105850;1273;23216;-63
2022/09/07 07:22:30;;;;;;;9.80;1.70;;;;;;;14.34;61.61;100462.20;105852;1274;24651;-64
2022/09/07 07:25:01;;;;;;;7.90;1.40;;;;;;;14.42;61.65;100462.46;106083;1274;22537;-64
2022/09/07 07:27:33;;;;;;;8.10;1.50;;;;;;;14.49;61.51;100459.95;105794;1274;25390;-64
2022/09/07 07:30:08;;;;;;;6.90;1.30;;;;;;;14.57;61.50;100460.02;105764;1274;25415;-64
2022/09/07 07:32:41;;;;;;;6.80;1.30;;;;;;;14.62;61.17;100458.00;105713;1274;25665;-64
2022/09/07 07:35:13;;;;;;;6.50;1.20;;;;;;;14.66;61.19;100457.00;105730;1274;24265;-64
2022/09/07 07:37:46;;;;;;;9.10;1.80;;;;;;;14.73;61.13;100450.39;105709;1274;24438;-64
2022/09/07 07:40:19;;;;;;;9.90;1.90;;;;;;;14.81;61.26;100447.52;105746;1274;22538;-64
2022/09/07 07:42:51;;;;;;;6.80;1.30;;;;;;;14.89;61.33;100443.93;105755;1274;24327;-63
2022/09/07 07:45:22;;;;;;;10.80;2.00;;;;;;;14.98;61.20;100440.55;105782;1274;25328;-63
2022/09/07 07:47:54;;;;;;;9.30;1.60;;;;;;;15.06;61.02;100437.83;105787;1274;22534;-65
2022/09/07 07:50:25;;;;;;;9.50;1.30;;;;;;;15.11;60.80;100444.08;105667;1274;23073;-64
2022/09/07 07:52:57;;;;;;;8.10;1.30;;;;;;;15.18;60.77;100442.33;105669;1274;22537;-64
2022/09/07 07:55:29;;;;;;;8.70;1.40;;;;;;;15.27;61.05;100448.17;105762;1274;22516;-64
2022/09/07 07:58:00;;;;;;;9.30;2.40;;;;;;;15.37;61.19;100454.28;105725;1274;23936;-64
2022/09/07 08:00:33;;;;;;;9.70;1.50;;;;;;;15.51;60.98;100452.83;105667;1273;24353;-64
2022/09/07 08:03:05;;;;;;;10.10;1.70;;;;;;;15.60;60.72;100451.05;105763;1274;22617;-64
2022/09/07 08:05:39;;;;;;;11.00;1.60;;;;;;;15.67;60.73;100450.10;105869;1273;22472;-64
2022/09/07 08:08:11;;;;;;;14.40;1.50;;;;;;;15.73;60.40;100450.62;105880;1274;22538;-66
2022/09/07 08:10:44;;;;;;;10.90;2.00;;;;;;;15.79;60.48;100447.91;105650;1271;22468;-63
2022/09/07 08:13:16;;;;;;;11.90;2.40;;;;;;;15.85;60.31;100444.23;105750;1273;24445;-63
2022/09/07 08:15:47;;;;;;;6.20;1.60;;;;;;;15.94;60.59;100441.78;105845;1274;22638;-64
2022/09/07 08:18:19;;;;;;;9.00;1.20;;;;;;;16.01;60.07;100445.08;105888;1274;22605;-63
2022/09/07 08:20:51;;;;;;;10.90;1.60;;;;;;;16.07;60.15;100439.23;105876;1274;22522;-64
2022/09/07 08:23:24;;;;;;;8.70;1.90;;;;;;;16.13;59.78;100437.02;105774;1273;25277;-64
2022/09/07 08:25:58;;;;;;;10.10;2.00;;;;;;;16.22;60.28;100437.84;105910;1274;22589;-64
2022/09/07 08:28:32;;;;;;;8.10;1.80;;;;;;;16.32;59.93;100437.15;105881;1274;26656;-65
2022/09/07 08:31:06;;;;;;;9.30;2.00;;;;;;;16.39;59.89;100437.45;105829;1274;23505;-64
2022/09/07 08:33:39;;;;;;;8.90;1.60;;;;;;;16.48;59.96;100438.02;105719;1273;22550;-64
2022/09/07 08:36:13;;;;;;;6.00;1.60;;;;;;;16.58;59.97;100445.23;105810;1274;22528;-64
2022/09/07 08:38:46;;;;;;;9.70;1.90;;;;;;;16.67;59.89;100443.38;105725;1274;22545;-65
2022/09/07 08:41:42;;;;;;;11.40;2.20;;;;;;;16.75;59.60;100445.15;105710;1273;22537;-64
2022/09/07 08:44:18;;;;;;;9.00;2.00;;;;;;;16.84;59.40;100450.65;105682;1274;22705;-64
2022/09/07 08:46:56;;;;;;;9.80;1.80;;;;;;;16.91;59.16;100449.55;105724;1273;24293;-63
2022/09/07 08:49:42;;;;;;;11.00;1.70;;;;;;;16.98;59.36;100442.98;105949;1273;22518;-64
2022/09/07 08:52:19;;;;;;;8.70;1.80;;;;;;;17.07;59.38;100432.94;105884;1273;22558;-64
2022/09/07 08:54:58;;;;;;;10.80;2.10;;;;;;;17.15;59.21;100425.41;105751;1274;22538;-63
2022/09/07 08:57:33;;;;;;;11.50;1.70;;;;;;;17.24;59.13;100422.73;105779;1273;24391;-65
2022/09/07 09:00:12;;;;;;;11.40;2.20;;;;;;;17.32;58.91;100414.70;105724;1273;22612;-65
2022/09/07 09:02:44;;;;;;;10.80;2.00;;;;;;;17.39;58.78;100408.91;105869;1273;25343;-64
2022/09/07 09:05:37;;;;;;;14.10;2.40;;;;;;;17.46;58.64;100408.81;105694;1273;22655;-64
2022/09/07 09:08:22;;;;;;;9.00;2.00;;;;;;;17.55;58.59;100406.67;105669;1273;22532;-65
2022/09/07 09:11:04;;;;;;;8.10;1.70;;;;;;;17.70;58.96;100404.46;105742;1273;22557;-65
2022/09/07 09:13:53;;;;;;;7.00;2.00;;;;;;;17.86;58.80;100407.27;105748;1274;22567;-65
2022/09/07 09:16:34;;;;;;;9.70;2.70;;;;;;;17.96;58.47;100408.38;105748;1273;23325;-65
2022/09/07 09:19:28;;;;;;;12.90;2.00;;;;;;;18.04;58.13;100406.05;105644;1273;22564;-66
2022/09/07 09:22:08;;;;;;;9.90;2.20;;;;;;;18.12;57.76;100400.48;105783;1274;22800;-65
2022/09/07 09:24:48;;;;;;;8.20;2.10;;;;;;;18.22;57.96;100397.42;105720;1273;25343;-65
2022/09/07 09:27:20;;;;;;;11.00;2.20;;;;;;;18.30;57.74;100391.31;105641;1273;25566;-66
2022/09/07 09:29:52;;;;;;;7.40;1.80;;;;;;;18.37;57.56;100389.30;105751;1273;22659;-64
2022/09/07 09:32:38;;;;;;;8.40;1.80;;;;;;;18.43;57.04;100386.83;106111;1273;24234;-65
2022/09/07 09:35:31;;;;;;;6.30;1.80;;;;;;;18.54;57.06;100393.52;105828;1273;22574;-64
2022/09/07 09:38:03;;;;;;;12.00;2.20;;;;;;;18.66;56.62;100392.88;105743;1273;22548;-66
2022/09/07 09:40:37;;;;;;;8.20;1.80;;;;;;;18.77;56.40;100393.25;105700;1273;22558;-65
2022/09/07 09:43:18;;;;;;;8.80;1.60;;;;;;;18.87;56.60;100395.29;105709;1273;22476;-65
2022/09/07 09:45:52;;;;;;;12.30;1.80;;;;;;;18.97;56.36;100390.73;105778;1273;24444;-66
2022/09/07 09:48:32;;;;;;;14.60;2.00;;;;;;;19.03;56.17;100386.09;105837;1273;24238;-66
2022/09/07 09:51:06;;;;;;;10.80;2.20;;;;;;;19.07;55.93;100385.92;105760;1273;23220;-65
2022/09/07 09:53:49;;;;;;;13.70;2.30;;;;;;;19.13;55.98;100376.98;105755;1273;22615;-65
2022/09/07 09:56:21;;;;;;;11.30;2.10;;;;;;;19.23;55.91;100374.74;105634;1273;22567;-66
2022/09/07 09:59:11;;;;;;;9.60;1.80;;;;;;;19.33;55.57;100363.95;105695;1272;24231;-65
2022/09/07 10:01:42;;;;;;;9.80;1.60;;;;;;;19.43;55.40;100357.76;106104;1273;22531;-66
2022/09/07 10:04:31;;;;;;;10.60;2.10;;;;;;;19.51;55.01;100355.38;105848;1273;25468;-65
2022/09/07 10:07:18;;;;;;;8.30;2.00;;;;;;;19.58;55.00;100344.28;105841;1272;25395;-64
2022/09/07 10:09:53;;;;;;;10.30;1.70;;;;;;;19.65;54.73;100345.20;105728;1273;22525;-65
2022/09/07 10:12:29;;;;;;;8.30;1.90;;;;;;;19.73;54.97;100349.66;105739;1273;22689;-65
2022/09/07 10:15:02;;;;;;;10.80;2.10;;;;;;;19.84;54.94;100353.58;105764;1273;22705;-66
2022/09/07 10:17:37;;;;;;;9.30;2.00;;;;;;;19.94;54.48;100351.86;105895;1273;22530;-66
2022/09/07 10:20:34;;;;;;;10.30;1.60;;;;;;;20.02;54.44;100352.41;105695;1273;23047;-65
2022/09/07 10:23:20;;;;;;;11.50;1.80;;;;;;;20.08;53.94;100350.39;105945;1273;22544;-66
2022/09/07 10:25:51;;;;;;;7.30;1.70;;;;;;;20.16;54.00;100346.13;105655;1273;22704;-65
2022/09/07 10:28:24;;;;;;;6.20;1.50;;;;;;;20.28;54.03;100346.34;105774;1273;22501;-65
2022/09/07 10:31:12;;;;;;;7.90;1.90;;;;;;;20.36;53.78;100351.29;105773;1273;22629;-66
2022/09/07 10:33:54;;;;;;;8.20;1.60;;;;;;;20.43;53.66;100347.43;105786;1273;22550;-65
2022/09/07 10:36:37;;;;;;;10.00;1.60;;;;;;;20.50;53.43;100349.94;105741;1273;24416;-65
2022/09/07 10:39:15;;;;;;;8.20;1.60;;;;;;;20.56;53.49;100349.66;105725;1273;24170;-66
2022/09/07 10:41:56;;;;;;;7.80;1.80;;;;;;;20.64;53.43;100349.52;105837;1273;24268;-65
2022/09/07 10:44:43;;;;;;;9.80;2.10;;;;;;;20.76;53.46;100344.75;105694;1273;24243;-66
2022/09/07 10:47:26;;;;;;;7.20;1.50;;;;;;;20.82;52.67;100342.46;105753;1273;22710;-65
2022/09/07 10:50:02;;;;;;;11.00;1.90;;;;;;;20.84;52.43;100339.65;105810;1273;24315;-66
2022/09/07 10:52:43;;;;;;;10.40;2.30;;;;;;;20.87;52.65;100335.17;105752;1273;24247;-65
2022/09/07 10:55:22;;;;;;;10.90;1.70;;;;;;;20.93;52.61;100336.66;105739;1273;22895;-67
2022/09/07 10:58:07;;;;;;;10.20;1.80;;;;;;;21.01;52.41;100336.91;105735;1273;26249;-65
2022/09/07 11:00:48;;;;;;;6.40;1.40;;;;;;;21.05;52.12;100338.79;105857;1273;24246;-66
2022/09/07 11:03:37;;;;;;;7.20;1.70;;;;;;;21.13;52.51;100339.91;105814;1273;22684;-67
2022/09/07 11:06:18;;;;;;;8.10;2.00;;;;;;;21.20;52.15;100341.81;105745;1273;22552;-67
2022/09/07 11:09:09;;;;;;;11.20;2.00;;;;;;;21.25;52.05;100332.63;105742;1273;24294;-66
2022/09/07 11:11:46;;;;;;;6.60;1.70;;;;;;;21.30;52.03;100334.42;105660;1273;22581;-67
2022/09/07 11:14:20;;;;;;;7.50;1.60;;;;;;;21.38;51.75;100335.73;105646;1273;22844;-66
2022/09/07 11:16:55;;;;;;;7.50;1.80;;;;;;;21.46;51.70;100327.01;106034;1273;22889;-67
2022/09/07 11:19:32;;;;;;;7.40;1.60;;;;;;;21.52;51.83;100324.13;106096;1271;25301;-67
2022/09/07 11:22:14;;;;;;;8.90;1.50;;;;;;;21.58;51.75;100319.91;105908;1273;23212;-67
2022/09/07 11:24:53;;;;;;;11.40;1.90;;;;;;;21.66;51.37;100320.98;105759;1273;24139;-68
2022/09/07 11:27:29;;;;;;;6.80;1.70;;;;;;;21.72;51.18;100317.80;105674;1273;24434;-66
2022/09/07 11:30:15;;;;;;;5.90;1.50;;;;;;;21.74;51.07;100321.65;105749;1272;25420;-66
2022/09/07 11:32:55;;;;;;;8.80;1.70;;;;;;;21.76;50.78;100326.78;105744;1273;22553;-67
2022/09/07 11:35:35;;;;;;;8.80;1.70;;;;;;;21.79;50.50;100329.19;105760;1272;24359;-67
2022/09/07 11:38:19;;;;;;;9.50;1.70;;;;;;;21.82;50.50;100324.60;105633;1273;22558;-67
2022/09/07 11:41:02;;;;;;;4.90;1.60;;;;;;;21.84;50.59;100324.86;105830;1273;24303;-67
2022/09/07 11:43:39;;;;;;;9.20;1.80;;;;;;;21.88;50.49;100316.67;105818;1272;26530;-67
2022/09/07 11:46:17;;;;;;;13.20;1.70;;;;;;;21.95;50.57;100307.30;105718;1273;22556;-67
2022/09/07 11:48:53;;;;;;;7.80;1.50;;;;;;;22.00;50.16;100306.50;105787;1273;23308;-66
2022/09/07 11:51:32;;;;;;;7.40;1.90;;;;;;;22.04;50.20;100301.67;105779;1273;22537;-67
2022/09/07 11:54:17;;;;;;;7.60;2.20;;;;;;;22.09;50.26;100307.02;105925;1273;22723;-67